createdAt,value
2019-02-25T06:53:34.025Z,2.90
2019-02-25T06:56:04.631Z,2.90
2019-02-25T06:58:37.973Z,2.80
2019-02-25T07:01:08.442Z,2.80
2019-02-25T07:03:38.855Z,2.80
2019-02-25T07:06:28.202Z,2.70
2019-02-25T07:09:06.390Z,2.90
2019-02-25T07:11:48.888Z,2.80
2019-02-25T07:14:47.289Z,2.80
2019-02-25T07:17:48.463Z,3.70
2019-02-25T07:20:39.692Z,4.60
2019-02-25T07:23:27.957Z,5.20
2019-02-25T07:26:22.015Z,5.70
2019-02-25T07:29:10.317Z,5.90
2019-02-25T07:31:47.880Z,5.90
2019-02-25T07:34:27.026Z,5.90
2019-02-25T07:37:17.998Z,6.00
2019-02-25T07:40:09.032Z,6.10
2019-02-25T07:42:51.199Z,6.00
2019-02-25T07:45:41.774Z,5.40
2019-02-25T07:48:28.568Z,5.00
2019-02-25T07:51:13.390Z,4.90
2019-02-25T07:53:55.846Z,4.80
2019-02-25T07:56:50.007Z,4.80
2019-02-25T07:59:24.791Z,4.80
2019-02-25T08:02:02.757Z,4.80
2019-02-25T08:04:45.797Z,4.90
2019-02-25T08:07:46.883Z,4.90
2019-02-25T08:10:23.379Z,5.10
2019-02-25T08:13:17.442Z,5.20
2019-02-25T08:16:24.182Z,5.30
2019-02-25T08:19:11.964Z,5.40
2019-02-25T08:22:00.192Z,5.60
2019-02-25T08:24:35.637Z,5.80
2019-02-25T08:27:13.813Z,6.00
2019-02-25T10:52:30.959Z,12.40
2019-02-25T10:55:00.284Z,12.60
2019-02-25T10:57:31.352Z,12.70
2019-02-25T11:00:02.725Z,12.90
2019-02-25T11:02:32.028Z,13.10
2019-02-25T11:05:01.357Z,13.40
2019-02-25T11:07:31.156Z,13.50
2019-02-25T11:10:22.277Z,13.70
2019-02-25T11:12:53.352Z,13.90
2019-02-25T11:15:22.723Z,14.10
2019-02-25T11:17:53.807Z,14.10
2019-02-25T11:20:23.139Z,14.10
2019-02-25T11:22:52.859Z,14.20
2019-02-25T11:25:24.080Z,14.10
2019-02-25T11:27:53.266Z,14.20
2019-02-25T11:30:23.886Z,14.20
2019-02-25T11:32:55.584Z,14.30
2019-02-25T11:35:24.361Z,14.30
2019-02-25T11:37:54.745Z,14.30
2019-02-25T11:40:26.015Z,14.40
2019-02-25T11:42:55.749Z,14.40
2019-02-25T11:45:25.198Z,14.40
2019-02-25T11:47:54.492Z,14.30
2019-02-25T11:50:23.812Z,14.40
